Time;durP1;ratioP1;P1;durP2;ratioP2;P2;SDS_P1;SDS_P2;PMS_P1;PMS_P2;Temp;Humidity;BMP_temperature;BMP_pressure;BME280_temperature;BME280_humidity;BME280_pressure;Samples;Min_cycle;Max_cycle;Signal;HPM_P1;HPM_P2
2022/05/23 18:43:58;;;;;;;13.70;5.80;;;;;;;14.53;53.98;98526.95;106015;1271;109140;-67
2022/05/23 18:46:36;;;;;;;14.90;5.60;;;;;;;14.46;53.88;98530.83;106402;1274;95905;-68
2022/05/23 18:51:53;;;;;;;14.20;5.80;;;;;;;14.31;54.02;98541.73;107947;1272;111057;-66
2022/05/23 18:54:21;;;;;;;15.60;5.90;;;;;;;14.24;53.93;98543.89;106108;1274;97995;-67
2022/05/23 18:56:50;;;;;;;15.20;6.00;;;;;;;14.15;53.96;98542.03;105800;1277;108207;-67
2022/05/23 18:59:22;;;;;;;18.30;6.50;;;;;;;14.09;54.04;98539.95;105830;1274;97998;-66
2022/05/23 19:01:51;;;;;;;17.90;6.60;;;;;;;14.01;54.13;98544.98;105976;1274;97999;-68
2022/05/23 19:04:20;;;;;;;21.30;6.90;;;;;;;13.93;54.14;98544.98;105856;1275;111815;-66
2022/05/23 19:07:18;;;;;;;23.00;7.70;;;;;;;13.85;54.17;98546.14;106012;1274;97876;-69
2022/05/23 19:09:49;;;;;;;17.30;6.70;;;;;;;13.77;54.24;98544.56;105996;1274;106162;-71
2022/05/23 19:12:21;;;;;;;21.50;8.40;;;;;;;13.70;54.23;98548.06;105919;1274;97985;-70
2022/05/23 19:14:51;;;;;;;18.80;8.10;;;;;;;13.57;54.10;98554.40;106129;1274;97858;-65
2022/05/23 19:17:22;;;;;;;17.90;7.60;;;;;;;13.42;54.08;98552.23;106061;1274;112028;-66
2022/05/23 19:19:53;;;;;;;17.60;7.60;;;;;;;13.34;54.38;98556.16;106041;1274;97857;-69
2022/05/23 19:22:26;;;;;;;20.80;8.90;;;;;;;13.27;54.60;98555.75;105971;1274;108317;-70
2022/05/23 19:24:57;;;;;;;18.90;8.60;;;;;;;13.20;54.53;98553.85;105984;1274;96400;-69
2022/05/23 19:27:25;;;;;;;19.80;8.60;;;;;;;13.15;54.76;98550.48;106071;1274;97876;-65
2022/05/23 19:29:55;;;;;;;17.60;8.00;;;;;;;13.10;54.75;98545.91;106098;1274;112677;-69
2022/05/23 19:32:25;;;;;;;23.70;9.00;;;;;;;12.99;54.91;98551.99;106101;1274;95326;-68
2022/05/23 19:34:55;;;;;;;16.50;7.60;;;;;;;12.91;54.84;98550.65;106006;1274;108841;-67
2022/05/23 19:37:25;;;;;;;17.70;8.40;;;;;;;12.86;55.06;98548.77;106048;1274;96201;-67
2022/05/23 19:39:59;;;;;;;18.70;8.50;;;;;;;12.84;55.18;98552.16;106072;1274;95352;-66
2022/05/23 19:42:27;;;;;;;20.10;9.00;;;;;;;12.85;55.28;98547.05;106126;1274;112120;-67
2022/05/23 19:45:00;;;;;;;19.70;10.00;;;;;;;12.85;55.23;98546.55;106052;1274;97956;-66
2022/05/23 19:47:30;;;;;;;25.40;11.50;;;;;;;12.81;55.52;98544.79;106040;1274;108446;-66
2022/05/23 19:50:06;;;;;;;22.80;11.30;;;;;;;12.66;55.25;98536.11;106028;1274;97967;-67
2022/05/23 19:52:35;;;;;;;22.10;11.70;;;;;;;12.54;55.37;98540.95;105934;1274;97768;-66
2022/05/23 19:55:06;;;;;;;20.40;10.50;;;;;;;12.43;55.60;98546.20;106024;1274;111781;-67
2022/05/23 19:57:35;;;;;;;24.40;11.60;;;;;;;12.41;55.69;98544.23;106065;1274;96390;-69
2022/05/23 20:00:06;;;;;;;24.20;12.80;;;;;;;12.42;55.79;98546.48;106065;1274;107937;-67
2022/05/23 20:08:12;;;;;;;23.80;13.00;;;;;;;12.34;55.97;98549.59;106104;1274;112033;-70
2022/05/23 20:10:42;;;;;;;26.30;11.90;;;;;;;12.33;56.06;98546.38;106078;1274;97902;-68
2022/05/23 20:13:21;;;;;;;25.10;12.60;;;;;;;12.30;56.08;98546.08;106156;1274;108414;-67
2022/05/23 20:15:49;;;;;;;27.80;12.40;;;;;;;12.25;56.13;98541.23;106155;1274;98584;-66
2022/05/23 20:18:23;;;;;;;20.80;11.00;;;;;;;12.20;56.09;98549.09;106042;1274;95163;-68
2022/05/23 20:20:56;;;;;;;21.30;11.40;;;;;;;12.15;56.27;98551.42;106184;1274;111370;-68
2022/05/23 20:23:27;;;;;;;23.80;11.00;;;;;;;12.11;56.32;98554.15;107255;1274;97876;-68
2022/05/23 20:26:16;;;;;;;21.70;10.60;;;;;;;12.07;56.49;98553.60;106021;1274;108549;-67
2022/05/23 20:28:46;;;;;;;24.00;11.90;;;;;;;12.04;56.47;98550.95;106065;1274;98036;-68
2022/05/23 20:31:16;;;;;;;23.10;11.70;;;;;;;12.02;56.78;98548.30;106120;1274;97883;-68
2022/05/23 20:33:46;;;;;;;25.10;12.40;;;;;;;11.94;56.61;98550.88;106058;1275;112007;-66
2022/05/23 20:36:16;;;;;;;23.20;11.90;;;;;;;11.84;56.59;98552.30;106116;1274;95193;-66
2022/05/23 20:38:45;;;;;;;23.00;12.10;;;;;;;11.75;56.58;98550.09;106036;1274;108378;-67
2022/05/23 20:41:13;;;;;;;25.20;12.70;;;;;;;11.69;56.93;98547.92;106100;1274;98001;-66
2022/05/23 20:43:41;;;;;;;24.20;12.00;;;;;;;11.65;56.96;98546.48;106141;1274;95196;-67
2022/05/23 20:46:35;;;;;;;23.40;11.80;;;;;;;11.63;57.17;98542.39;106113;1274;113161;-67
2022/05/23 20:49:07;;;;;;;23.20;12.80;;;;;;;11.62;57.24;98543.66;106075;1274;98634;-68
2022/05/23 20:51:38;;;;;;;26.30;13.80;;;;;;;11.58;57.29;98547.27;106054;1274;108476;-67
2022/05/23 20:54:06;;;;;;;23.90;12.70;;;;;;;11.50;57.28;98551.11;106078;1274;97866;-66
2022/05/23 20:56:36;;;;;;;23.60;12.40;;;;;;;11.42;57.35;98548.36;106176;1274;97872;-65
2022/05/23 20:59:06;;;;;;;27.00;12.90;;;;;;;11.39;57.55;98550.81;106105;1274;112369;-66
2022/05/23 21:01:55;;;;;;;23.80;12.60;;;;;;;11.34;57.52;98555.28;106092;1274;97906;-66
2022/05/23 21:04:26;;;;;;;26.50;13.00;;;;;;;11.32;57.68;98558.05;106113;1274;106963;-67
2022/05/23 21:06:57;;;;;;;30.20;14.30;;;;;;;11.33;57.69;98557.16;106090;1274;97980;-67
2022/05/23 21:09:26;;;;;;;32.80;14.30;;;;;;;11.29;57.68;98563.46;106160;1274;97861;-68
2022/05/23 21:11:56;;;;;;;26.00;13.30;;;;;;;11.28;57.78;98563.27;106011;1275;111477;-66
2022/05/23 21:14:34;;;;;;;24.60;12.50;;;;;;;11.25;57.84;98567.70;106106;1274;97928;-67
2022/05/23 21:17:20;;;;;;;24.70;12.30;;;;;;;11.26;58.04;98567.16;106188;1274;108321;-67
2022/05/23 21:19:53;;;;;;;24.50;13.10;;;;;;;11.20;58.13;98559.79;106147;1274;97548;-67
2022/05/23 21:22:26;;;;;;;26.70;14.00;;;;;;;11.12;57.89;98561.89;106061;1274;97879;-68
2022/05/23 21:24:56;;;;;;;29.00;13.90;;;;;;;11.02;57.99;98563.04;106060;1274;111420;-70
2022/05/23 21:27:28;;;;;;;25.10;12.70;;;;;;;10.94;58.06;98559.09;106083;1274;95192;-67
2022/05/23 21:29:56;;;;;;;25.70;13.50;;;;;;;10.90;58.42;98559.06;106069;1274;108338;-66
2022/05/23 21:32:26;;;;;;;25.60;13.20;;;;;;;10.87;58.53;98553.65;106065;1274;97888;-66
2022/05/23 21:34:57;;;;;;;28.10;13.70;;;;;;;10.84;58.67;98555.28;106148;1274;95347;-66
2022/05/23 21:37:25;;;;;;;29.20;14.40;;;;;;;10.77;58.57;98554.16;106083;1274;112021;-66
2022/05/23 21:48:26;;;;;;;26.00;14.30;;;;;;;10.27;58.93;98565.67;106160;1274;95207;-66
2022/05/23 21:50:54;;;;;;;27.70;15.10;;;;;;;10.25;59.00;98567.41;106000;1274;111467;-64
2022/05/23 21:53:27;;;;;;;27.30;14.90;;;;;;;10.23;59.08;98570.25;106098;1274;95205;-64
2022/05/23 21:56:00;;;;;;;28.50;14.70;;;;;;;10.20;59.17;98570.52;106112;1274;108426;-66
2022/05/23 21:58:28;;;;;;;27.50;16.00;;;;;;;10.19;59.15;98570.05;106110;1274;95273;-67
2022/05/23 22:03:52;;;;;;;24.10;13.60;;;;;;;10.11;59.39;98569.02;106491;1274;111104;-66
2022/05/23 22:06:24;;;;;;;25.90;14.20;;;;;;;10.08;59.36;98565.70;105994;1273;98611;-65
2022/05/23 22:08:55;;;;;;;27.50;13.60;;;;;;;10.06;59.52;98563.90;106098;1273;106000;-68
2022/05/23 22:11:27;;;;;;;26.30;15.20;;;;;;;9.99;59.67;98564.86;106041;1274;95354;-66
2022/05/23 22:13:59;;;;;;;26.70;14.40;;;;;;;9.92;59.73;98560.49;106077;1274;95286;-67
2022/05/23 22:16:28;;;;;;;27.30;14.40;;;;;;;9.83;60.01;98563.05;106067;1274;111973;-65
2022/05/23 22:18:57;;;;;;;26.80;13.10;;;;;;;9.76;60.03;98562.44;106172;1274;97819;-65
2022/05/23 22:21:25;;;;;;;24.80;12.90;;;;;;;9.72;60.21;98562.72;105957;1275;108113;-65
2022/05/23 22:23:57;;;;;;;25.30;13.20;;;;;;;9.67;60.05;98565.03;106133;1274;98058;-64
2022/05/23 22:26:28;;;;;;;23.10;12.90;;;;;;;9.62;60.08;98572.80;106234;1274;98551;-65
2022/05/23 22:29:00;;;;;;;24.30;12.70;;;;;;;9.60;60.27;98574.56;106047;1274;112193;-63
2022/05/23 22:31:31;;;;;;;24.50;13.00;;;;;;;9.54;60.21;98577.33;106142;1273;97872;-66
2022/05/23 22:33:59;;;;;;;22.60;11.80;;;;;;;9.46;60.26;98574.41;106100;1274;108355;-64
2022/05/23 22:36:30;;;;;;;26.30;13.30;;;;;;;9.40;60.63;98572.01;106076;1274;97857;-66
2022/05/23 22:39:00;;;;;;;27.90;13.10;;;;;;;9.36;60.53;98576.23;106159;1273;97895;-64
2022/05/23 22:41:28;;;;;;;26.70;13.40;;;;;;;9.29;60.63;98574.98;106123;1273;112210;-65
2022/05/23 22:43:56;;;;;;;29.00;14.80;;;;;;;9.22;60.82;98571.26;106139;1273;97901;-65
2022/05/23 22:46:27;;;;;;;25.00;11.80;;;;;;;9.16;60.74;98569.20;106035;1274;108841;-66
2022/05/23 22:48:58;;;;;;;26.20;13.30;;;;;;;9.16;60.99;98568.30;106198;1274;98066;-66
2022/05/23 22:51:28;;;;;;;25.40;13.80;;;;;;;9.18;61.06;98562.30;106195;1274;96378;-65
2022/05/23 22:53:57;;;;;;;25.50;13.70;;;;;;;9.17;61.11;98563.11;106014;1276;112529;-64
2022/05/23 22:56:30;;;;;;;25.40;13.40;;;;;;;9.12;61.08;98561.58;106078;1274;96395;-65
2022/05/23 22:58:58;;;;;;;23.90;13.20;;;;;;;9.09;60.99;98567.09;106086;1274;107789;-65
2022/05/23 23:01:29;;;;;;;27.70;14.40;;;;;;;9.10;61.32;98566.80;106072;1273;98088;-65
2022/05/23 23:07:00;;;;;;;25.80;13.60;;;;;;;9.11;61.50;98561.42;106013;1273;112001;-65
2022/05/23 23:09:33;;;;;;;24.40;12.40;;;;;;;9.10;61.48;98557.98;106136;1273;97937;-69
2022/05/23 23:12:04;;;;;;;26.70;14.60;;;;;;;9.12;61.57;98559.64;106114;1273;108279;-65
2022/05/23 23:14:32;;;;;;;26.40;14.50;;;;;;;9.04;61.46;98559.77;106040;1273;97882;-66
2022/05/23 23:17:05;;;;;;;23.70;13.30;;;;;;;8.97;61.63;98563.00;106140;1274;97897;-66
2022/05/23 23:19:33;;;;;;;27.70;14.50;;;;;;;8.90;61.74;98562.97;106009;1274;112049;-67
2022/05/23 23:22:01;;;;;;;26.00;13.10;;;;;;;8.85;61.70;98556.99;106031;1274;97839;-65
2022/05/23 23:24:30;;;;;;;25.20;13.00;;;;;;;8.82;61.93;98551.17;106043;1272;108807;-64
2022/05/23 23:27:03;;;;;;;24.20;13.20;;;;;;;8.81;62.08;98548.11;105980;1274;97979;-65
2022/05/23 23:29:31;;;;;;;25.40;13.50;;;;;;;8.80;62.47;98541.05;106079;1274;97546;-69
2022/05/23 23:31:59;;;;;;;23.90;12.60;;;;;;;8.79;62.31;98541.85;106106;1273;111781;-68
2022/05/23 23:40:14;;;;;;;23.70;12.20;;;;;;;8.79;62.30;98545.54;105972;1275;97942;-66
2022/05/23 23:42:43;;;;;;;27.30;13.30;;;;;;;8.84;62.46;98540.84;106028;1274;97889;-65
2022/05/23 23:45:17;;;;;;;24.30;12.20;;;;;;;8.86;62.52;98541.16;105981;1274;112141;-65
2022/05/23 23:47:52;;;;;;;22.10;12.50;;;;;;;8.86;62.33;98543.63;106026;1274;95281;-66
2022/05/23 23:50:23;;;;;;;25.70;14.10;;;;;;;8.88;62.51;98541.58;106033;1274;106859;-66
2022/05/23 23:52:51;;;;;;;22.40;12.90;;;;;;;8.89;62.89;98535.63;105990;1274;97788;-64
2022/05/23 23:55:20;;;;;;;27.00;14.70;;;;;;;8.89;62.80;98531.44;105950;1276;95265;-67
2022/05/23 23:57:50;;;;;;;28.20;13.60;;;;;;;8.82;62.69;98529.31;105956;1274;111953;-67
